Costa Fortuna — IBNY — position and weather

sailwx.info

Track history (hours):
 
Tides and Currents Weather Stations Pressure Air Temp Water Temp Dewpoint Dewpoint Depression Visibility Wind Speed Wind Dir Waves Ship Positions

Costa Fortuna

Last reported at 2019-May-20 16:30 UTC. Time now 2019-May-20 16:43 UTC.
Position N 39°26' W 000°18'.

Length 272 m; draft 8.3 m.

Type: Ship. MMSI: 247094800.

Date/timePositionNaut miles runAvg speedWind from/ knotsBaromVisibWave heightAir tempDewpointWater temp
2019-May-20 16:30N 39°26' W 000°18'2 0.5
2019-May-20 12:55N 39°27' W 000°19'0 0.0
2019-May-20 11:10N 39°27' W 000°19'0 0.0
2019-May-20 10:16N 39°27' W 000°19'0 0.0
2019-May-20 09:28N 39°27' W 000°19'0 0.0
2019-May-20 08:40N 39°27' W 000°19'0 0.0
2019-May-20 06:07N 39°27' W 000°19'0 0.0
2019-May-20 05:52N 39°27' W 000°19'0 1.4
2019-May-20 05:30N 39°27' W 000°19'2 5.0
2019-May-20 05:00N 39°25' W 000°17'611.1
2019-May-20 04:30N 39°29' W 000°11'612.9
2019-May-20 04:00N 39°33' W 000°04'1112.9
2019-May-20 03:10N 39°41' E 000°05'9313.1
2019-May-19 20:01N 40°43' E 001°36'013.3
2019-May-19 20:00N 40°43' E 001°36'713.3
2019-May-19 19:30N 40°49' E 001°42'713.6
2019-May-19 19:00N 40°54' E 001°47'713.5
2019-May-19 18:30N 40°59' E 001°53'713.5
2019-May-19 18:00N 41°04' E 001°59'713.1
2019-May-19 17:30N 41°09' E 002°04'612.8
2019-May-19 17:00N 41°14' E 002°09'510.3
2019-May-19 16:30N 41°20' E 002°10'2 3.2
2019-May-19 15:59N 41°21' E 002°10'0 0.0
2019-May-19 15:29N 41°21' E 002°10'0 0.0
2019-May-19 14:59N 41°21' E 002°10'0 0.0
2019-May-19 14:29N 41°21' E 002°10'0 0.0
2019-May-19 13:59N 41°21' E 002°10'0 0.0
2019-May-19 13:29N 41°21' E 002°10'0 0.0
2019-May-19 12:59N 41°21' E 002°10'0 0.0
2019-May-19 12:29N 41°21' E 002°10'0 0.0
2019-May-19 11:59N 41°21' E 002°10'0 0.0
2019-May-19 11:29N 41°21' E 002°10'0 0.0
2019-May-19 10:59N 41°21' E 002°10'0 0.0
2019-May-19 10:29N 41°21' E 002°10'0 0.0
2019-May-19 09:59N 41°21' E 002°10'0 0.0
2019-May-19 09:29N 41°21' E 002°10'0 0.0
2019-May-19 08:59N 41°21' E 002°10'0 0.0
2019-May-19 08:29N 41°21' E 002°10'0 0.0
2019-May-19 07:59N 41°21' E 002°10'0 0.0
2019-May-19 07:29N 41°21' E 002°10'0 0.0
2019-May-19 06:59N 41°21' E 002°10'0 0.0
2019-May-19 06:29N 41°21' E 002°10'0 0.0
2019-May-19 05:59N 41°21' E 002°10'1 1.5
2019-May-19 05:30N 41°21' E 002°10'3 6.0
2019-May-19 05:00N 41°18' E 002°11'611.4
2019-May-19 04:30N 41°13' E 002°15'713.9
2019-May-19 04:01N 41°16' E 002°23'713.8
2019-May-19 03:30N 41°19' E 002°32'713.7
2019-May-19 03:01N 41°23' E 002°40'714.0
2019-May-19 02:31N 41°26' E 002°48'13716.2
2019-May-18 18:04N 43°03' E 004°58'116.8
2019-May-18 18:01N 43°04' E 004°59'917.2
2019-May-18 17:31N 43°10' E 005°07'816.4
2019-May-18 17:01N 43°16' E 005°14'510.1
2019-May-18 16:31N 43°20' E 005°18'1 2.3
2019-May-18 15:59N 43°21' E 005°20'0 0.0
2019-May-18 15:30N 43°21' E 005°20'0 0.0
2019-May-18 09:50N 43°21' E 005°20'0 0.0
2019-May-18 08:35N 43°21' E 005°20'0 0.1
2019-May-18 05:19N 43°21' E 005°20'1 4.0
2019-May-18 04:59N 43°21' E 005°18'612.0
2019-May-18 04:31N 43°16' E 005°14'6114.1
2019-May-18 00:13N 42°55' E 006°32'418.3
2019-May-18 00:00N 42°57' E 006°36'918.2
2019-May-17 23:30N 43°02' E 006°46'918.1
2019-May-17 23:00N 43°08' E 006°56'918.2
2019-May-17 22:30N 43°13' E 007°06'917.9
2019-May-17 22:00N 43°18' E 007°16'917.9
2019-May-17 21:30N 43°24' E 007°26'918.3
2019-May-17 21:00N 43°29' E 007°36'918.7
2019-May-17 20:30N 43°35' E 007°46'918.5
2019-May-17 20:00N 43°40' E 007°57'918.7
2019-May-17 19:30N 43°46' E 008°07'918.8
2019-May-17 19:00N 43°52' E 008°17'918.5
2019-May-17 18:30N 43°58' E 008°27'918.6
2019-May-17 18:00N 44°05' E 008°36'918.3
2019-May-17 17:30N 44°11' E 008°45'917.8
2019-May-17 17:00N 44°17' E 008°54'612.4
2019-May-17 16:30N 44°23' E 008°57'2 3.7
2019-May-17 15:58N 44°25' E 008°55'0 0.0
2019-May-17 15:28N 44°25' E 008°55'0 0.0
2019-May-17 14:58N 44°25' E 008°55'0 0.0
2019-May-17 14:28N 44°25' E 008°55'0 0.0
2019-May-17 13:58N 44°25' E 008°55'0 0.0
2019-May-17 13:28N 44°25' E 008°55'0 0.0
2019-May-17 12:58N 44°25' E 008°55'0 0.0
2019-May-17 12:28N 44°25' E 008°55'0 0.0
2019-May-17 11:58N 44°25' E 008°55'0 0.0
2019-May-17 11:28N 44°25' E 008°55'0 0.0
2019-May-17 10:58N 44°25' E 008°55'0 0.0
2019-May-17 10:28N 44°25' E 008°55'0 0.0
2019-May-17 09:58N 44°25' E 008°55'0 0.0
2019-May-17 09:28N 44°25' E 008°55'0 0.0
2019-May-17 08:58N 44°25' E 008°55'0 0.0
2019-May-17 08:28N 44°25' E 008°55'0 0.0
2019-May-17 07:58N 44°25' E 008°55'0 0.0
2019-May-17 07:28N 44°25' E 008°55'0 0.0
2019-May-17 06:58N 44°25' E 008°55'0 0.0
2019-May-17 06:28N 44°25' E 008°55'0 0.0
2019-May-17 05:58N 44°25' E 008°55'0 1.1
2019-May-17 05:30N 44°24' E 008°55'2 3.9
2019-May-17 05:00N 44°23' E 008°57'611.2
2019-May-17 04:30N 44°17' E 008°58'713.6
2019-May-17 04:01N 44°11' E 008°55'612.9
2019-May-17 03:30N 44°05' E 008°52'612.7
2019-May-17 03:00N 43°59' E 008°48'612.1
2019-May-17 02:30N 43°54' E 008°44'611.6
2019-May-17 02:01N 43°49' E 008°40'611.7
2019-May-17 01:31N 43°44' E 008°35'4 8.5
2019-May-17 01:00N 43°42' E 008°40'612.4
2019-May-17 00:31N 43°42' E 008°49'612.3
2019-May-17 00:00N 43°43' E 008°57'612.1
2019-May-16 23:31N 43°43' E 009°06'612.0
2019-May-16 23:01N 43°42' E 009°14'611.9
2019-May-16 22:31N 43°42' E 009°22'611.6
2019-May-16 22:00N 43°43' E 009°30'611.8
2019-May-16 21:30N 43°45' E 009°37'611.8
2019-May-16 21:01N 43°47' E 009°45'611.7
2019-May-16 20:31N 43°50' E 009°53'611.2
2019-May-16 20:00N 43°55' E 009°54'611.9
2019-May-16 19:31N 44°01' E 009°52'510.5
2019-May-16 19:00N 44°06' E 009°50'0 0.5
2019-May-16 18:30N 44°06' E 009°50'0 0.0
2019-May-16 18:00N 44°06' E 009°50'0 0.0
2019-May-16 17:30N 44°06' E 009°50'0 0.0
2019-May-16 17:00N 44°06' E 009°50'0 0.0
2019-May-16 16:30N 44°06' E 009°50'0 0.0
2019-May-16 16:00N 44°06' E 009°50'0 0.0
2019-May-16 15:30N 44°06' E 009°50'0 0.0
2019-May-16 15:00N 44°06' E 009°50'0 0.0
2019-May-16 14:30N 44°06' E 009°50'0 0.0
2019-May-16 13:57N 44°06' E 009°50'0 0.0
2019-May-16 13:30N 44°06' E 009°50'0 0.0
2019-May-16 13:00N 44°06' E 009°50'0 0.0
2019-May-16 12:30N 44°06' E 009°50'0 0.0
2019-May-16 12:00N 44°06' E 009°50'0 0.0
2019-May-16 11:30N 44°06' E 009°50'0 0.0
2019-May-16 11:00N 44°06' E 009°50'0 0.0
2019-May-16 10:30N 44°06' E 009°50'0 0.0
2019-May-16 10:00N 44°06' E 009°50'0 0.0
2019-May-16 09:30N 44°06' E 009°50'0 0.0
2019-May-16 08:57N 44°06' E 009°50'0 0.0
2019-May-16 08:27N 44°06' E 009°50'0 0.0
2019-May-16 08:00N 44°06' E 009°50'0 0.0
2019-May-16 07:30N 44°06' E 009°50'0 0.0
2019-May-16 07:00N 44°06' E 009°50'0 0.7
2019-May-16 06:30N 44°06' E 009°50'3 5.9
2019-May-16 06:00N 44°03' E 009°52'713.8
2019-May-16 05:30N 43°58' E 009°57'918.8
2019-May-16 05:00N 43°49' E 009°52'1020.0
2019-May-16 04:30N 43°39' E 009°47'1020.0
2019-May-16 04:00N 43°30' E 009°45'1020.4
2019-May-16 03:30N 43°20' E 009°42'1020.0
2019-May-16 03:00N 43°10' E 009°40'1019.8
2019-May-16 02:30N 42°60' E 009°40'1219.9
2019-May-16 01:53N 42°48' E 009°43'1519.8
2019-May-16 01:08N 42°33' E 009°48'319.5
2019-May-16 01:00N 42°31' E 009°48'3617.1
2019-May-15 22:53N 42°01' E 010°17'22 0.9
2019-May-14 23:55N 41°40' E 010°21'613.4
2019-May-14 23:31N 41°38' E 010°14'713.5
2019-May-14 22:59N 41°35' E 010°05'31315.5
2019-May-14 02:49N 40°16' E 003°24'1817.9
2019-May-14 01:50N 40°12' E 003°02'617.8
2019-May-14 01:30N 40°10' E 002°54'917.6
2019-May-14 00:59N 40°08' E 002°43'917.7
2019-May-14 00:30N 40°05' E 002°32'1017.7
2019-May-13 23:55N 40°02' E 002°19'11517.2
2019-May-13 17:12N 39°28' W 000°04'314.3
2019-May-13 17:00N 39°27' W 000°08'613.2
2019-May-13 16:30N 39°25' W 000°15'4 7.5
2019-May-13 15:59N 39°27' W 000°19'0 0.0
2019-May-13 13:59N 39°27' W 000°19'0 0.0
2019-May-13 13:17N 39°27' W 000°19'0 0.0
2019-May-13 11:11N 39°27' W 000°19'0 0.0
2019-May-13 10:59N 39°27' W 000°19'0 0.0
2019-May-13 10:29N 39°27' W 000°19'0 0.0
2019-May-13 09:47N 39°27' W 000°19'0 0.0
2019-May-13 09:23N 39°27' W 000°19'0 0.0
2019-May-13 08:32N 39°27' W 000°19'0 0.0
2019-May-13 08:26N 39°27' W 000°19'0 0.0
2019-May-13 07:56N 39°27' W 000°19'0 0.0
2019-May-13 07:26N 39°27' W 000°19'0 0.0
2019-May-13 06:11N 39°27' W 000°19'0 0.0
2019-May-13 05:59N 39°27' W 000°19'1 1.2
2019-May-13 05:30N 39°27' W 000°19'3 5.9
2019-May-13 05:00N 39°26' W 000°15'510.5
2019-May-13 04:30N 39°30' W 000°11'714.2
2019-May-13 04:00N 39°35' W 000°04'814.1
2019-May-13 03:25N 39°40' E 000°04'7713.0
2019-May-12 21:31N 40°30' E 001°21'212.9
2019-May-12 21:20N 40°31' E 001°23'613.1
2019-May-12 20:52N 40°36' E 001°28'1313.3
2019-May-12 19:53N 40°46' E 001°39'513.3
2019-May-12 19:30N 40°50' E 001°43'613.1
2019-May-12 19:00N 40°55' E 001°49'613.0
2019-May-12 18:30N 40°60' E 001°54'713.1
2019-May-12 18:00N 41°05' E 001°60'613.1
2019-May-12 17:30N 41°10' E 002°05'612.9
2019-May-12 17:00N 41°15' E 002°11'510.7
2019-May-12 16:30N 41°20' E 002°10'1 1.8
2019-May-12 16:00N 41°21' E 002°10'0 0.0
2019-May-12 15:30N 41°21' E 002°10'0 0.0
2019-May-12 15:00N 41°21' E 002°10'0 0.0
2019-May-12 14:30N 41°21' E 002°10'0 0.0
2019-May-12 14:00N 41°21' E 002°10'0 0.0
2019-May-12 13:30N 41°21' E 002°10'0 0.0
2019-May-12 13:00N 41°21' E 002°10'0 0.0
2019-May-12 12:30N 41°21' E 002°10'0 0.0
2019-May-12 12:00N 41°21' E 002°10'0 0.0
2019-May-12 11:30N 41°21' E 002°10'0 0.0
2019-May-12 11:00N 41°21' E 002°10'0 0.0
2019-May-12 10:30N 41°21' E 002°10'0 0.0
2019-May-12 10:00N 41°21' E 002°10'0 0.0
2019-May-12 09:30N 41°21' E 002°10'0 0.0
2019-May-12 09:00N 41°21' E 002°10'0 0.0
2019-May-12 08:30N 41°21' E 002°10'0 0.0
2019-May-12 08:00N 41°21' E 002°10'0 0.0
2019-May-12 07:30N 41°21' E 002°10'0 0.0
2019-May-12 07:00N 41°21' E 002°10'0 0.0
2019-May-12 06:30N 41°21' E 002°10'0 0.0
2019-May-12 06:00N 41°21' E 002°10'0 1.0
2019-May-12 05:30N 41°21' E 002°10'3 5.6
2019-May-12 05:00N 41°18' E 002°11'510.7
2019-May-12 04:30N 41°13' E 002°14'611.6
2019-May-12 04:00N 41°15' E 002°21'612.2
2019-May-12 03:30N 41°19' E 002°28'612.4
2019-May-12 03:00N 41°22' E 002°35'612.2
2019-May-12 02:30N 41°25' E 002°42'14417.1
2019-May-11 18:03N 43°06' E 005°02'10 9.5
2019-May-11 17:01N 43°13' E 005°11'613.8
2019-May-11 16:35N 43°18' E 005°16'113.5
2019-May-11 16:29N 43°19' E 005°17'2 0.2
2019-May-11 05:26N 43°21' E 005°20'4 8.3
2019-May-11 04:58N 43°19' E 005°15'1011.2
2019-May-11 04:03N 43°09' E 005°20'1814.8
2019-May-11 02:49N 42°59' E 005°40'517.0
2019-May-11 02:30N 42°56' E 005°47'816.9
2019-May-11 02:00N 42°53' E 005°57'816.7
2019-May-11 01:30N 42°52' E 006°09'817.0
2019-May-11 01:00N 42°51' E 006°20'917.5
2019-May-11 00:30N 42°55' E 006°31'918.3
2019-May-11 00:00N 42°60' E 006°42'918.4
2019-May-10 23:30N 43°05' E 006°52'918.4
2019-May-10 23:00N 43°11' E 007°02'918.1
2019-May-10 22:30N 43°16' E 007°12'917.9
2019-May-10 22:00N 43°22' E 007°21'917.7
2019-May-10 21:30N 43°27' E 007°31'917.7
2019-May-10 21:00N 43°32' E 007°41'918.0
2019-May-10 20:30N 43°38' E 007°51'917.8
2019-May-10 20:00N 43°43' E 008°01'917.7
2019-May-10 19:30N 43°48' E 008°11'917.8
2019-May-10 19:00N 43°54' E 008°20'917.5
2019-May-10 18:30N 43°60' E 008°29'917.2
2019-May-10 18:00N 44°06' E 008°38'917.2
2019-May-10 17:30N 44°12' E 008°46'917.6
2019-May-10 17:00N 44°18' E 008°55'  
Track history (hours):
 
Tides and Currents Weather Stations Pressure Air Temp Water Temp Dewpoint Dewpoint Depression Visibility Wind Speed Wind Dir Waves Ship Positions

Costa Fortuna

Last reported at 2019-May-20 16:30 UTC. Time now 2019-May-20 16:43 UTC.
Position N 39°26' W 000°18'.

Length 272 m; draft 8.3 m.

Type: Ship. MMSI: 247094800.

Date/timePositionNaut miles runAvg speedWind from/ knotsBaromVisibWave heightAir tempDewpointWater temp
2019-May-20 16:30N 39°26' W 000°18'2 0.5
2019-May-20 12:55N 39°27' W 000°19'0 0.0
2019-May-20 11:10N 39°27' W 000°19'0 0.0
2019-May-20 10:16N 39°27' W 000°19'0 0.0
2019-May-20 09:28N 39°27' W 000°19'0 0.0
2019-May-20 08:40N 39°27' W 000°19'0 0.0
2019-May-20 06:07N 39°27' W 000°19'0 0.0
2019-May-20 05:52N 39°27' W 000°19'0 1.4
2019-May-20 05:30N 39°27' W 000°19'2 5.0
2019-May-20 05:00N 39°25' W 000°17'611.1
2019-May-20 04:30N 39°29' W 000°11'612.9
2019-May-20 04:00N 39°33' W 000°04'1112.9
2019-May-20 03:10N 39°41' E 000°05'9313.1
2019-May-19 20:01N 40°43' E 001°36'013.3
2019-May-19 20:00N 40°43' E 001°36'713.3
2019-May-19 19:30N 40°49' E 001°42'713.6
2019-May-19 19:00N 40°54' E 001°47'713.5
2019-May-19 18:30N 40°59' E 001°53'713.5
2019-May-19 18:00N 41°04' E 001°59'713.1
2019-May-19 17:30N 41°09' E 002°04'612.8
2019-May-19 17:00N 41°14' E 002°09'510.3
2019-May-19 16:30N 41°20' E 002°10'2 3.2
2019-May-19 15:59N 41°21' E 002°10'0 0.0
2019-May-19 15:29N 41°21' E 002°10'0 0.0
2019-May-19 14:59N 41°21' E 002°10'0 0.0
2019-May-19 14:29N 41°21' E 002°10'0 0.0
2019-May-19 13:59N 41°21' E 002°10'0 0.0
2019-May-19 13:29N 41°21' E 002°10'0 0.0
2019-May-19 12:59N 41°21' E 002°10'0 0.0
2019-May-19 12:29N 41°21' E 002°10'0 0.0
2019-May-19 11:59N 41°21' E 002°10'0 0.0
2019-May-19 11:29N 41°21' E 002°10'0 0.0
2019-May-19 10:59N 41°21' E 002°10'0 0.0
2019-May-19 10:29N 41°21' E 002°10'0 0.0
2019-May-19 09:59N 41°21' E 002°10'0 0.0
2019-May-19 09:29N 41°21' E 002°10'0 0.0
2019-May-19 08:59N 41°21' E 002°10'0 0.0
2019-May-19 08:29N 41°21' E 002°10'0 0.0
2019-May-19 07:59N 41°21' E 002°10'0 0.0
2019-May-19 07:29N 41°21' E 002°10'0 0.0
2019-May-19 06:59N 41°21' E 002°10'0 0.0
2019-May-19 06:29N 41°21' E 002°10'0 0.0
2019-May-19 05:59N 41°21' E 002°10'1 1.5
2019-May-19 05:30N 41°21' E 002°10'3 6.0
2019-May-19 05:00N 41°18' E 002°11'611.4
2019-May-19 04:30N 41°13' E 002°15'713.9
2019-May-19 04:01N 41°16' E 002°23'713.8
2019-May-19 03:30N 41°19' E 002°32'713.7
2019-May-19 03:01N 41°23' E 002°40'714.0
2019-May-19 02:31N 41°26' E 002°48'13716.2
2019-May-18 18:04N 43°03' E 004°58'116.8
2019-May-18 18:01N 43°04' E 004°59'917.2
2019-May-18 17:31N 43°10' E 005°07'816.4
2019-May-18 17:01N 43°16' E 005°14'510.1
2019-May-18 16:31N 43°20' E 005°18'1 2.3
2019-May-18 15:59N 43°21' E 005°20'0 0.0
2019-May-18 15:30N 43°21' E 005°20'0 0.0
2019-May-18 09:50N 43°21' E 005°20'0 0.0
2019-May-18 08:35N 43°21' E 005°20'0 0.1
2019-May-18 05:19N 43°21' E 005°20'1 4.0
2019-May-18 04:59N 43°21' E 005°18'612.0
2019-May-18 04:31N 43°16' E 005°14'6114.1
2019-May-18 00:13N 42°55' E 006°32'418.3
2019-May-18 00:00N 42°57' E 006°36'918.2
2019-May-17 23:30N 43°02' E 006°46'918.1
2019-May-17 23:00N 43°08' E 006°56'918.2
2019-May-17 22:30N 43°13' E 007°06'917.9
2019-May-17 22:00N 43°18' E 007°16'917.9
2019-May-17 21:30N 43°24' E 007°26'918.3
2019-May-17 21:00N 43°29' E 007°36'918.7
2019-May-17 20:30N 43°35' E 007°46'918.5
2019-May-17 20:00N 43°40' E 007°57'918.7
2019-May-17 19:30N 43°46' E 008°07'918.8
2019-May-17 19:00N 43°52' E 008°17'918.5
2019-May-17 18:30N 43°58' E 008°27'918.6
2019-May-17 18:00N 44°05' E 008°36'918.3
2019-May-17 17:30N 44°11' E 008°45'917.8
2019-May-17 17:00N 44°17' E 008°54'612.4
2019-May-17 16:30N 44°23' E 008°57'2 3.7
2019-May-17 15:58N 44°25' E 008°55'0 0.0
2019-May-17 15:28N 44°25' E 008°55'0 0.0
2019-May-17 14:58N 44°25' E 008°55'0 0.0
2019-May-17 14:28N 44°25' E 008°55'0 0.0
2019-May-17 13:58N 44°25' E 008°55'0 0.0
2019-May-17 13:28N 44°25' E 008°55'0 0.0
2019-May-17 12:58N 44°25' E 008°55'0 0.0
2019-May-17 12:28N 44°25' E 008°55'0 0.0
2019-May-17 11:58N 44°25' E 008°55'0 0.0
2019-May-17 11:28N 44°25' E 008°55'0 0.0
2019-May-17 10:58N 44°25' E 008°55'0 0.0
2019-May-17 10:28N 44°25' E 008°55'0 0.0
2019-May-17 09:58N 44°25' E 008°55'0 0.0
2019-May-17 09:28N 44°25' E 008°55'0 0.0
2019-May-17 08:58N 44°25' E 008°55'0 0.0
2019-May-17 08:28N 44°25' E 008°55'0 0.0
2019-May-17 07:58N 44°25' E 008°55'0 0.0
2019-May-17 07:28N 44°25' E 008°55'0 0.0
2019-May-17 06:58N 44°25' E 008°55'0 0.0
2019-May-17 06:28N 44°25' E 008°55'0 0.0
2019-May-17 05:58N 44°25' E 008°55'0 1.1
2019-May-17 05:30N 44°24' E 008°55'2 3.9
2019-May-17 05:00N 44°23' E 008°57'611.2
2019-May-17 04:30N 44°17' E 008°58'713.6
2019-May-17 04:01N 44°11' E 008°55'612.9
2019-May-17 03:30N 44°05' E 008°52'612.7
2019-May-17 03:00N 43°59' E 008°48'612.1
2019-May-17 02:30N 43°54' E 008°44'611.6
2019-May-17 02:01N 43°49' E 008°40'611.7
2019-May-17 01:31N 43°44' E 008°35'4 8.5
2019-May-17 01:00N 43°42' E 008°40'612.4
2019-May-17 00:31N 43°42' E 008°49'612.3
2019-May-17 00:00N 43°43' E 008°57'612.1
2019-May-16 23:31N 43°43' E 009°06'612.0
2019-May-16 23:01N 43°42' E 009°14'611.9
2019-May-16 22:31N 43°42' E 009°22'611.6
2019-May-16 22:00N 43°43' E 009°30'611.8
2019-May-16 21:30N 43°45' E 009°37'611.8
2019-May-16 21:01N 43°47' E 009°45'611.7
2019-May-16 20:31N 43°50' E 009°53'611.2
2019-May-16 20:00N 43°55' E 009°54'611.9
2019-May-16 19:31N 44°01' E 009°52'510.5
2019-May-16 19:00N 44°06' E 009°50'0 0.5
2019-May-16 18:30N 44°06' E 009°50'0 0.0
2019-May-16 18:00N 44°06' E 009°50'0 0.0
2019-May-16 17:30N 44°06' E 009°50'0 0.0
2019-May-16 17:00N 44°06' E 009°50'0 0.0
2019-May-16 16:30N 44°06' E 009°50'0 0.0
2019-May-16 16:00N 44°06' E 009°50'0 0.0
2019-May-16 15:30N 44°06' E 009°50'0 0.0
2019-May-16 15:00N 44°06' E 009°50'0 0.0
2019-May-16 14:30N 44°06' E 009°50'0 0.0
2019-May-16 13:57N 44°06' E 009°50'0 0.0
2019-May-16 13:30N 44°06' E 009°50'0 0.0
2019-May-16 13:00N 44°06' E 009°50'0 0.0
2019-May-16 12:30N 44°06' E 009°50'0 0.0
2019-May-16 12:00N 44°06' E 009°50'0 0.0
2019-May-16 11:30N 44°06' E 009°50'0 0.0
2019-May-16 11:00N 44°06' E 009°50'0 0.0
2019-May-16 10:30N 44°06' E 009°50'0 0.0
2019-May-16 10:00N 44°06' E 009°50'0 0.0
2019-May-16 09:30N 44°06' E 009°50'0 0.0
2019-May-16 08:57N 44°06' E 009°50'0 0.0
2019-May-16 08:27N 44°06' E 009°50'0 0.0
2019-May-16 08:00N 44°06' E 009°50'0 0.0
2019-May-16 07:30N 44°06' E 009°50'0 0.0
2019-May-16 07:00N 44°06' E 009°50'0 0.7
2019-May-16 06:30N 44°06' E 009°50'3 5.9
2019-May-16 06:00N 44°03' E 009°52'713.8
2019-May-16 05:30N 43°58' E 009°57'918.8
2019-May-16 05:00N 43°49' E 009°52'1020.0
2019-May-16 04:30N 43°39' E 009°47'1020.0
2019-May-16 04:00N 43°30' E 009°45'1020.4
2019-May-16 03:30N 43°20' E 009°42'1020.0
2019-May-16 03:00N 43°10' E 009°40'1019.8
2019-May-16 02:30N 42°60' E 009°40'1219.9
2019-May-16 01:53N 42°48' E 009°43'1519.8
2019-May-16 01:08N 42°33' E 009°48'319.5
2019-May-16 01:00N 42°31' E 009°48'3617.1
2019-May-15 22:53N 42°01' E 010°17'22 0.9
2019-May-14 23:55N 41°40' E 010°21'613.4
2019-May-14 23:31N 41°38' E 010°14'713.5
2019-May-14 22:59N 41°35' E 010°05'31315.5
2019-May-14 02:49N 40°16' E 003°24'1817.9
2019-May-14 01:50N 40°12' E 003°02'617.8
2019-May-14 01:30N 40°10' E 002°54'917.6
2019-May-14 00:59N 40°08' E 002°43'917.7
2019-May-14 00:30N 40°05' E 002°32'1017.7
2019-May-13 23:55N 40°02' E 002°19'11517.2
2019-May-13 17:12N 39°28' W 000°04'314.3
2019-May-13 17:00N 39°27' W 000°08'613.2
2019-May-13 16:30N 39°25' W 000°15'4 7.5
2019-May-13 15:59N 39°27' W 000°19'0 0.0
2019-May-13 13:59N 39°27' W 000°19'0 0.0
2019-May-13 13:17N 39°27' W 000°19'0 0.0
2019-May-13 11:11N 39°27' W 000°19'0 0.0
2019-May-13 10:59N 39°27' W 000°19'0 0.0
2019-May-13 10:29N 39°27' W 000°19'0 0.0
2019-May-13 09:47N 39°27' W 000°19'0 0.0
2019-May-13 09:23N 39°27' W 000°19'0 0.0
2019-May-13 08:32N 39°27' W 000°19'0 0.0
2019-May-13 08:26N 39°27' W 000°19'0 0.0
2019-May-13 07:56N 39°27' W 000°19'0 0.0
2019-May-13 07:26N 39°27' W 000°19'0 0.0
2019-May-13 06:11N 39°27' W 000°19'0 0.0
2019-May-13 05:59N 39°27' W 000°19'1 1.2
2019-May-13 05:30N 39°27' W 000°19'3 5.9
2019-May-13 05:00N 39°26' W 000°15'510.5
2019-May-13 04:30N 39°30' W 000°11'714.2
2019-May-13 04:00N 39°35' W 000°04'814.1
2019-May-13 03:25N 39°40' E 000°04'7713.0
2019-May-12 21:31N 40°30' E 001°21'212.9
2019-May-12 21:20N 40°31' E 001°23'613.1
2019-May-12 20:52N 40°36' E 001°28'1313.3
2019-May-12 19:53N 40°46' E 001°39'513.3
2019-May-12 19:30N 40°50' E 001°43'613.1
2019-May-12 19:00N 40°55' E 001°49'613.0
2019-May-12 18:30N 40°60' E 001°54'713.1
2019-May-12 18:00N 41°05' E 001°60'613.1
2019-May-12 17:30N 41°10' E 002°05'612.9
2019-May-12 17:00N 41°15' E 002°11'510.7
2019-May-12 16:30N 41°20' E 002°10'1 1.8
2019-May-12 16:00N 41°21' E 002°10'0 0.0
2019-May-12 15:30N 41°21' E 002°10'0 0.0
2019-May-12 15:00N 41°21' E 002°10'0 0.0
2019-May-12 14:30N 41°21' E 002°10'0 0.0
2019-May-12 14:00N 41°21' E 002°10'0 0.0
2019-May-12 13:30N 41°21' E 002°10'0 0.0
2019-May-12 13:00N 41°21' E 002°10'0 0.0
2019-May-12 12:30N 41°21' E 002°10'0 0.0
2019-May-12 12:00N 41°21' E 002°10'0 0.0
2019-May-12 11:30N 41°21' E 002°10'0 0.0
2019-May-12 11:00N 41°21' E 002°10'0 0.0
2019-May-12 10:30N 41°21' E 002°10'0 0.0
2019-May-12 10:00N 41°21' E 002°10'0 0.0
2019-May-12 09:30N 41°21' E 002°10'0 0.0
2019-May-12 09:00N 41°21' E 002°10'0 0.0
2019-May-12 08:30N 41°21' E 002°10'0 0.0
2019-May-12 08:00N 41°21' E 002°10'0 0.0
2019-May-12 07:30N 41°21' E 002°10'0 0.0
2019-May-12 07:00N 41°21' E 002°10'0 0.0
2019-May-12 06:30N 41°21' E 002°10'0 0.0
2019-May-12 06:00N 41°21' E 002°10'0 1.0
2019-May-12 05:30N 41°21' E 002°10'3 5.6
2019-May-12 05:00N 41°18' E 002°11'510.7
2019-May-12 04:30N 41°13' E 002°14'611.6
2019-May-12 04:00N 41°15' E 002°21'612.2
2019-May-12 03:30N 41°19' E 002°28'612.4
2019-May-12 03:00N 41°22' E 002°35'612.2
2019-May-12 02:30N 41°25' E 002°42'14417.1
2019-May-11 18:03N 43°06' E 005°02'10 9.5
2019-May-11 17:01N 43°13' E 005°11'613.8
2019-May-11 16:35N 43°18' E 005°16'113.5
2019-May-11 16:29N 43°19' E 005°17'2 0.2
2019-May-11 05:26N 43°21' E 005°20'4 8.3
2019-May-11 04:58N 43°19' E 005°15'1011.2
2019-May-11 04:03N 43°09' E 005°20'1814.8
2019-May-11 02:49N 42°59' E 005°40'517.0
2019-May-11 02:30N 42°56' E 005°47'816.9
2019-May-11 02:00N 42°53' E 005°57'816.7
2019-May-11 01:30N 42°52' E 006°09'817.0
2019-May-11 01:00N 42°51' E 006°20'917.5
2019-May-11 00:30N 42°55' E 006°31'918.3
2019-May-11 00:00N 42°60' E 006°42'918.4
2019-May-10 23:30N 43°05' E 006°52'918.4
2019-May-10 23:00N 43°11' E 007°02'918.1
2019-May-10 22:30N 43°16' E 007°12'917.9
2019-May-10 22:00N 43°22' E 007°21'917.7
2019-May-10 21:30N 43°27' E 007°31'917.7
2019-May-10 21:00N 43°32' E 007°41'918.0
2019-May-10 20:30N 43°38' E 007°51'917.8
2019-May-10 20:00N 43°43' E 008°01'917.7
2019-May-10 19:30N 43°48' E 008°11'917.8
2019-May-10 19:00N 43°54' E 008°20'917.5
2019-May-10 18:30N 43°60' E 008°29'917.2
2019-May-10 18:00N 44°06' E 008°38'917.2
2019-May-10 17:30N 44°12' E 008°46'917.6
2019-May-10 17:00N 44°18' E 008°55'  

Dump ship's entire track history